sensor_id;sensor_type;location;lat;lon;timestamp;P1;durP1;ratioP1;P2;durP2;ratioP2
31386;SDS011;18017;50.124;8.688;2023-01-13T00:02:12;1.27;;;0.20;;
31386;SDS011;18017;50.124;8.688;2023-01-13T00:04:38;3.50;;;0.38;;
31386;SDS011;18017;50.124;8.688;2023-01-13T00:07:03;1.98;;;0.20;;
31386;SDS011;18017;50.124;8.688;2023-01-13T00:09:29;1.77;;;0.20;;
31386;SDS011;18017;50.124;8.688;2023-01-13T00:11:54;0.82;;;0.10;;
31386;SDS011;18017;50.124;8.688;2023-01-13T00:14:20;4.13;;;0.13;;
31386;SDS011;18017;50.124;8.688;2023-01-13T00:16:46;2.35;;;0.20;;
31386;SDS011;18017;50.124;8.688;2023-01-13T00:19:11;2.15;;;0.20;;
31386;SDS011;18017;50.124;8.688;2023-01-13T00:21:37;3.22;;;0.40;;
31386;SDS011;18017;50.124;8.688;2023-01-13T00:24:03;0.82;;;0.20;;
31386;SDS011;18017;50.124;8.688;2023-01-13T00:26:28;2.60;;;0.20;;
31386;SDS011;18017;50.124;8.688;2023-01-13T00:28:57;4.88;;;0.32;;
31386;SDS011;18017;50.124;8.688;2023-01-13T00:31:24;1.30;;;0.10;;
31386;SDS011;18017;50.124;8.688;2023-01-13T00:33:50;1.15;;;0.20;;
31386;SDS011;18017;50.124;8.688;2023-01-13T00:36:16;2.47;;;0.20;;
31386;SDS011;18017;50.124;8.688;2023-01-13T00:38:43;2.33;;;0.10;;
31386;SDS011;18017;50.124;8.688;2023-01-13T00:41:10;0.30;;;0.10;;
31386;SDS011;18017;50.124;8.688;2023-01-13T00:43:37;2.95;;;0.10;;
31386;SDS011;18017;50.124;8.688;2023-01-13T00:46:04;2.58;;;0.30;;
31386;SDS011;18017;50.124;8.688;2023-01-13T00:48:31;2.53;;;0.20;;
31386;SDS011;18017;50.124;8.688;2023-01-13T00:51:07;1.27;;;0.20;;
31386;SDS011;18017;50.124;8.688;2023-01-13T00:53:35;0.35;;;0.10;;
31386;SDS011;18017;50.124;8.688;2023-01-13T00:58:30;1.15;;;0.00;;
31386;SDS011;18017;50.124;8.688;2023-01-13T01:01:00;2.63;;;0.20;;
31386;SDS011;18017;50.124;8.688;2023-01-13T01:03:26;0.57;;;0.00;;
31386;SDS011;18017;50.124;8.688;2023-01-13T01:05:53;4.07;;;0.20;;
31386;SDS011;18017;50.124;8.688;2023-01-13T01:08:19;1.00;;;0.13;;
31386;SDS011;18017;50.124;8.688;2023-01-13T01:10:44;1.52;;;0.08;;
31386;SDS011;18017;50.124;8.688;2023-01-13T01:13:10;0.40;;;0.00;;
31386;SDS011;18017;50.124;8.688;2023-01-13T01:15:47;2.00;;;0.20;;
31386;SDS011;18017;50.124;8.688;2023-01-13T01:18:13;1.63;;;0.10;;
31386;SDS011;18017;50.124;8.688;2023-01-13T01:20:39;0.98;;;0.22;;
31386;SDS011;18017;50.124;8.688;2023-01-13T01:23:04;0.75;;;0.10;;
31386;SDS011;18017;50.124;8.688;2023-01-13T01:25:31;1.30;;;0.20;;
31386;SDS011;18017;50.124;8.688;2023-01-13T01:27:57;1.45;;;0.10;;
31386;SDS011;18017;50.124;8.688;2023-01-13T01:30:23;0.63;;;0.03;;
31386;SDS011;18017;50.124;8.688;2023-01-13T01:32:48;0.17;;;0.10;;
31386;SDS011;18017;50.124;8.688;2023-01-13T01:35:14;1.00;;;0.10;;
31386;SDS011;18017;50.124;8.688;2023-01-13T01:37:39;0.08;;;0.00;;
31386;SDS011;18017;50.124;8.688;2023-01-13T01:40:05;0.45;;;0.10;;
31386;SDS011;18017;50.124;8.688;2023-01-13T01:42:31;0.13;;;0.00;;
31386;SDS011;18017;50.124;8.688;2023-01-13T01:47:46;1.58;;;0.10;;
31386;SDS011;18017;50.124;8.688;2023-01-13T01:50:14;0.60;;;0.10;;
31386;SDS011;18017;50.124;8.688;2023-01-13T01:52:43;0.22;;;0.10;;
31386;SDS011;18017;50.124;8.688;2023-01-13T01:55:20;1.52;;;0.08;;
31386;SDS011;18017;50.124;8.688;2023-01-13T01:57:56;2.13;;;0.10;;
31386;SDS011;18017;50.124;8.688;2023-01-13T02:00:28;2.20;;;0.10;;
31386;SDS011;18017;50.124;8.688;2023-01-13T02:02:54;0.20;;;0.10;;
31386;SDS011;18017;50.124;8.688;2023-01-13T02:05:21;2.72;;;0.10;;
31386;SDS011;18017;50.124;8.688;2023-01-13T02:07:48;0.65;;;0.10;;
31386;SDS011;18017;50.124;8.688;2023-01-13T02:12:44;2.92;;;0.20;;
31386;SDS011;18017;50.124;8.688;2023-01-13T02:15:13;0.68;;;0.10;;
31386;SDS011;18017;50.124;8.688;2023-01-13T02:21:08;2.13;;;0.10;;
31386;SDS011;18017;50.124;8.688;2023-01-13T02:32:32;1.73;;;0.10;;
31386;SDS011;18017;50.124;8.688;2023-01-13T02:35:04;1.25;;;0.13;;
31386;SDS011;18017;50.124;8.688;2023-01-13T02:37:36;0.95;;;0.10;;
31386;SDS011;18017;50.124;8.688;2023-01-13T02:40:07;0.10;;;0.00;;
31386;SDS011;18017;50.124;8.688;2023-01-13T02:42:46;1.10;;;0.20;;
31386;SDS011;18017;50.124;8.688;2023-01-13T02:46:00;2.17;;;0.10;;
31386;SDS011;18017;50.124;8.688;2023-01-13T02:48:32;4.30;;;0.10;;
31386;SDS011;18017;50.124;8.688;2023-01-13T02:51:07;0.35;;;0.00;;
31386;SDS011;18017;50.124;8.688;2023-01-13T02:53:39;1.95;;;0.20;;
31386;SDS011;18017;50.124;8.688;2023-01-13T02:56:09;1.77;;;0.55;;
31386;SDS011;18017;50.124;8.688;2023-01-13T02:58:37;0.55;;;0.00;;
31386;SDS011;18017;50.124;8.688;2023-01-13T03:01:04;0.70;;;0.00;;
31386;SDS011;18017;50.124;8.688;2023-01-13T03:03:30;1.73;;;0.10;;
31386;SDS011;18017;50.124;8.688;2023-01-13T03:06:07;0.88;;;0.10;;
31386;SDS011;18017;50.124;8.688;2023-01-13T03:09:14;0.52;;;0.03;;
31386;SDS011;18017;50.124;8.688;2023-01-13T03:12:14;0.52;;;0.10;;
31386;SDS011;18017;50.124;8.688;2023-01-13T03:15:04;0.77;;;0.10;;
31386;SDS011;18017;50.124;8.688;2023-01-13T03:17:43;0.57;;;0.10;;
31386;SDS011;18017;50.124;8.688;2023-01-13T03:20:21;0.63;;;0.03;;
31386;SDS011;18017;50.124;8.688;2023-01-13T03:22:54;1.02;;;0.00;;
31386;SDS011;18017;50.124;8.688;2023-01-13T03:25:27;0.00;;;0.00;;
31386;SDS011;18017;50.124;8.688;2023-01-13T03:27:56;1.35;;;0.10;;
31386;SDS011;18017;50.124;8.688;2023-01-13T03:30:25;0.57;;;0.00;;
31386;SDS011;18017;50.124;8.688;2023-01-13T03:33:04;0.40;;;0.00;;
31386;SDS011;18017;50.124;8.688;2023-01-13T03:35:50;0.40;;;0.05;;
31386;SDS011;18017;50.124;8.688;2023-01-13T03:38:23;0.20;;;0.00;;
31386;SDS011;18017;50.124;8.688;2023-01-13T03:40:58;0.57;;;0.13;;
31386;SDS011;18017;50.124;8.688;2023-01-13T03:43:30;0.50;;;0.10;;
31386;SDS011;18017;50.124;8.688;2023-01-13T03:46:31;0.30;;;0.00;;
31386;SDS011;18017;50.124;8.688;2023-01-13T03:51:33;1.27;;;0.00;;
31386;SDS011;18017;50.124;8.688;2023-01-13T03:54:04;0.03;;;0.03;;
31386;SDS011;18017;50.124;8.688;2023-01-13T03:56:35;0.30;;;0.10;;
31386;SDS011;18017;50.124;8.688;2023-01-13T03:59:05;0.88;;;0.00;;
31386;SDS011;18017;50.124;8.688;2023-01-13T04:04:11;0.22;;;0.05;;
31386;SDS011;18017;50.124;8.688;2023-01-13T04:06:46;0.70;;;0.17;;
31386;SDS011;18017;50.124;8.688;2023-01-13T04:12:24;0.50;;;0.03;;
31386;SDS011;18017;50.124;8.688;2023-01-13T04:15:20;0.30;;;0.00;;
31386;SDS011;18017;50.124;8.688;2023-01-13T04:17:46;0.10;;;0.00;;
31386;SDS011;18017;50.124;8.688;2023-01-13T04:20:12;0.95;;;0.00;;
31386;SDS011;18017;50.124;8.688;2023-01-13T04:22:37;0.00;;;0.00;;
31386;SDS011;18017;50.124;8.688;2023-01-13T04:25:03;2.03;;;0.15;;
31386;SDS011;18017;50.124;8.688;2023-01-13T04:27:29;0.95;;;0.08;;
31386;SDS011;18017;50.124;8.688;2023-01-13T04:29:55;0.20;;;0.00;;
31386;SDS011;18017;50.124;8.688;2023-01-13T04:32:20;0.30;;;0.00;;
31386;SDS011;18017;50.124;8.688;2023-01-13T04:34:46;0.30;;;0.00;;
31386;SDS011;18017;50.124;8.688;2023-01-13T04:37:11;0.40;;;0.00;;
31386;SDS011;18017;50.124;8.688;2023-01-13T04:39:37;0.08;;;0.00;;
31386;SDS011;18017;50.124;8.688;2023-01-13T04:42:03;0.47;;;0.00;;
31386;SDS011;18017;50.124;8.688;2023-01-13T04:44:28;1.30;;;0.03;;
31386;SDS011;18017;50.124;8.688;2023-01-13T04:46:56;0.00;;;0.00;;
31386;SDS011;18017;50.124;8.688;2023-01-13T04:49:22;0.75;;;0.00;;
31386;SDS011;18017;50.124;8.688;2023-01-13T04:51:48;3.67;;;0.20;;
31386;SDS011;18017;50.124;8.688;2023-01-13T04:54:13;0.00;;;0.00;;
31386;SDS011;18017;50.124;8.688;2023-01-13T04:56:40;0.28;;;0.00;;
31386;SDS011;18017;50.124;8.688;2023-01-13T04:59:05;0.03;;;0.00;;
31386;SDS011;18017;50.124;8.688;2023-01-13T05:01:31;0.00;;;0.00;;
31386;SDS011;18017;50.124;8.688;2023-01-13T05:03:56;0.80;;;0.08;;
31386;SDS011;18017;50.124;8.688;2023-01-13T05:06:22;2.72;;;0.10;;
31386;SDS011;18017;50.124;8.688;2023-01-13T05:08:47;0.25;;;0.00;;
31386;SDS011;18017;50.124;8.688;2023-01-13T05:11:14;2.38;;;0.00;;
31386;SDS011;18017;50.124;8.688;2023-01-13T05:13:59;0.00;;;0.00;;
31386;SDS011;18017;50.124;8.688;2023-01-13T05:16:49;3.58;;;0.10;;
31386;SDS011;18017;50.124;8.688;2023-01-13T05:19:26;1.95;;;0.03;;
31386;SDS011;18017;50.124;8.688;2023-01-13T05:21:55;0.80;;;0.10;;
31386;SDS011;18017;50.124;8.688;2023-01-13T05:24:40;0.10;;;0.00;;
31386;SDS011;18017;50.124;8.688;2023-01-13T05:27:25;0.00;;;0.00;;
31386;SDS011;18017;50.124;8.688;2023-01-13T05:29:51;0.75;;;0.10;;
31386;SDS011;18017;50.124;8.688;2023-01-13T05:32:17;1.38;;;0.10;;
31386;SDS011;18017;50.124;8.688;2023-01-13T05:34:43;0.57;;;0.10;;
31386;SDS011;18017;50.124;8.688;2023-01-13T05:37:08;0.20;;;0.10;;
31386;SDS011;18017;50.124;8.688;2023-01-13T05:39:35;0.15;;;0.00;;
31386;SDS011;18017;50.124;8.688;2023-01-13T05:42:20;1.80;;;0.30;;
31386;SDS011;18017;50.124;8.688;2023-01-13T05:45:17;2.70;;;0.00;;
31386;SDS011;18017;50.124;8.688;2023-01-13T05:47:43;0.25;;;0.00;;
31386;SDS011;18017;50.124;8.688;2023-01-13T05:50:09;0.32;;;0.00;;
31386;SDS011;18017;50.124;8.688;2023-01-13T05:52:35;1.38;;;0.00;;
31386;SDS011;18017;50.124;8.688;2023-01-13T05:55:00;2.85;;;0.10;;
31386;SDS011;18017;50.124;8.688;2023-01-13T05:57:26;0.93;;;0.03;;
31386;SDS011;18017;50.124;8.688;2023-01-13T05:59:51;0.65;;;0.10;;
31386;SDS011;18017;50.124;8.688;2023-01-13T06:02:17;1.48;;;0.08;;
31386;SDS011;18017;50.124;8.688;2023-01-13T06:04:42;1.00;;;0.08;;
31386;SDS011;18017;50.124;8.688;2023-01-13T06:07:09;1.70;;;0.22;;
31386;SDS011;18017;50.124;8.688;2023-01-13T06:09:34;0.75;;;0.00;;
31386;SDS011;18017;50.124;8.688;2023-01-13T06:12:00;1.38;;;0.10;;
31386;SDS011;18017;50.124;8.688;2023-01-13T06:14:26;0.52;;;0.10;;
31386;SDS011;18017;50.124;8.688;2023-01-13T06:17:03;0.35;;;0.10;;
31386;SDS011;18017;50.124;8.688;2023-01-13T06:19:32;0.52;;;0.00;;
31386;SDS011;18017;50.124;8.688;2023-01-13T06:21:57;1.73;;;0.20;;
31386;SDS011;18017;50.124;8.688;2023-01-13T06:24:24;2.17;;;0.10;;
31386;SDS011;18017;50.124;8.688;2023-01-13T06:26:50;4.20;;;0.20;;
31386;SDS011;18017;50.124;8.688;2023-01-13T06:29:16;1.30;;;0.10;;
31386;SDS011;18017;50.124;8.688;2023-01-13T06:31:41;2.10;;;0.10;;
31386;SDS011;18017;50.124;8.688;2023-01-13T06:34:08;0.55;;;0.10;;
31386;SDS011;18017;50.124;8.688;2023-01-13T06:36:37;0.80;;;0.20;;
31386;SDS011;18017;50.124;8.688;2023-01-13T06:39:05;0.57;;;0.00;;
31386;SDS011;18017;50.124;8.688;2023-01-13T06:41:34;1.08;;;0.20;;
31386;SDS011;18017;50.124;8.688;2023-01-13T06:44:18;0.88;;;0.05;;
31386;SDS011;18017;50.124;8.688;2023-01-13T06:46:44;0.10;;;0.00;;
31386;SDS011;18017;50.124;8.688;2023-01-13T06:49:11;0.93;;;0.10;;
31386;SDS011;18017;50.124;8.688;2023-01-13T06:51:36;2.88;;;0.20;;
31386;SDS011;18017;50.124;8.688;2023-01-13T06:54:02;2.22;;;1.00;;
31386;SDS011;18017;50.124;8.688;2023-01-13T06:56:28;1.50;;;0.08;;
31386;SDS011;18017;50.124;8.688;2023-01-13T06:58:53;1.58;;;0.28;;
31386;SDS011;18017;50.124;8.688;2023-01-13T07:01:19;2.53;;;0.22;;
31386;SDS011;18017;50.124;8.688;2023-01-13T07:03:44;0.68;;;0.10;;
31386;SDS011;18017;50.124;8.688;2023-01-13T07:06:10;2.70;;;0.20;;
31386;SDS011;18017;50.124;8.688;2023-01-13T07:08:35;2.00;;;0.20;;
31386;SDS011;18017;50.124;8.688;2023-01-13T07:11:01;3.83;;;0.43;;
31386;SDS011;18017;50.124;8.688;2023-01-13T07:13:27;1.50;;;0.10;;
31386;SDS011;18017;50.124;8.688;2023-01-13T07:16:11;1.05;;;0.30;;
31386;SDS011;18017;50.124;8.688;2023-01-13T07:18:37;1.75;;;0.10;;
31386;SDS011;18017;50.124;8.688;2023-01-13T07:21:03;0.93;;;0.10;;
31386;SDS011;18017;50.124;8.688;2023-01-13T07:23:32;2.03;;;0.20;;
31386;SDS011;18017;50.124;8.688;2023-01-13T07:25:59;1.52;;;0.13;;
31386;SDS011;18017;50.124;8.688;2023-01-13T07:28:25;1.73;;;0.08;;
31386;SDS011;18017;50.124;8.688;2023-01-13T07:30:52;1.95;;;0.20;;
31386;SDS011;18017;50.124;8.688;2023-01-13T07:33:18;4.43;;;0.10;;
31386;SDS011;18017;50.124;8.688;2023-01-13T07:35:44;1.73;;;0.20;;
31386;SDS011;18017;50.124;8.688;2023-01-13T07:38:11;0.45;;;0.03;;
31386;SDS011;18017;50.124;8.688;2023-01-13T07:40:37;1.45;;;0.10;;
31386;SDS011;18017;50.124;8.688;2023-01-13T07:43:04;0.30;;;0.03;;
31386;SDS011;18017;50.124;8.688;2023-01-13T07:45:48;3.13;;;0.10;;
31386;SDS011;18017;50.124;8.688;2023-01-13T07:48:14;1.95;;;0.08;;
31386;SDS011;18017;50.124;8.688;2023-01-13T07:50:39;3.80;;;0.13;;
31386;SDS011;18017;50.124;8.688;2023-01-13T07:53:05;1.25;;;0.10;;
31386;SDS011;18017;50.124;8.688;2023-01-13T07:55:30;1.55;;;0.10;;
31386;SDS011;18017;50.124;8.688;2023-01-13T07:57:56;0.85;;;0.00;;
31386;SDS011;18017;50.124;8.688;2023-01-13T08:00:21;1.13;;;0.10;;
31386;SDS011;18017;50.124;8.688;2023-01-13T08:02:47;2.67;;;0.30;;
31386;SDS011;18017;50.124;8.688;2023-01-13T08:05:16;3.10;;;0.15;;
31386;SDS011;18017;50.124;8.688;2023-01-13T08:07:42;0.30;;;0.10;;
31386;SDS011;18017;50.124;8.688;2023-01-13T08:10:08;1.20;;;0.20;;
31386;SDS011;18017;50.124;8.688;2023-01-13T08:12:34;2.08;;;0.13;;
31386;SDS011;18017;50.124;8.688;2023-01-13T08:15:18;0.10;;;0.00;;
31386;SDS011;18017;50.124;8.688;2023-01-13T08:17:43;1.95;;;0.10;;
31386;SDS011;18017;50.124;8.688;2023-01-13T08:20:09;3.22;;;0.20;;
31386;SDS011;18017;50.124;8.688;2023-01-13T08:22:35;1.00;;;0.10;;
31386;SDS011;18017;50.124;8.688;2023-01-13T08:25:00;0.90;;;0.10;;
31386;SDS011;18017;50.124;8.688;2023-01-13T08:27:26;0.32;;;0.00;;
31386;SDS011;18017;50.124;8.688;2023-01-13T08:29:51;1.10;;;0.10;;
31386;SDS011;18017;50.124;8.688;2023-01-13T08:32:17;1.45;;;0.00;;
31386;SDS011;18017;50.124;8.688;2023-01-13T08:34:42;1.95;;;0.20;;
31386;SDS011;18017;50.124;8.688;2023-01-13T08:37:08;4.53;;;0.38;;
31386;SDS011;18017;50.124;8.688;2023-01-13T08:39:34;0.95;;;0.10;;
31386;SDS011;18017;50.124;8.688;2023-01-13T08:42:00;1.48;;;0.20;;
31386;SDS011;18017;50.124;8.688;2023-01-13T08:44:27;1.80;;;0.15;;
31386;SDS011;18017;50.124;8.688;2023-01-13T08:46:54;0.70;;;0.13;;
31386;SDS011;18017;50.124;8.688;2023-01-13T08:49:21;1.65;;;0.10;;
31386;SDS011;18017;50.124;8.688;2023-01-13T08:51:47;2.78;;;0.10;;
31386;SDS011;18017;50.124;8.688;2023-01-13T08:54:13;1.00;;;0.10;;
31386;SDS011;18017;50.124;8.688;2023-01-13T08:56:39;3.97;;;0.20;;
31386;SDS011;18017;50.124;8.688;2023-01-13T08:59:07;3.25;;;0.10;;
31386;SDS011;18017;50.124;8.688;2023-01-13T09:01:38;0.57;;;0.10;;
31386;SDS011;18017;50.124;8.688;2023-01-13T09:04:05;2.33;;;0.20;;
31386;SDS011;18017;50.124;8.688;2023-01-13T09:06:31;2.28;;;0.30;;
31386;SDS011;18017;50.124;8.688;2023-01-13T09:08:57;1.83;;;0.52;;
31386;SDS011;18017;50.124;8.688;2023-01-13T09:11:25;1.02;;;0.20;;
31386;SDS011;18017;50.124;8.688;2023-01-13T09:14:17;3.07;;;0.10;;
31386;SDS011;18017;50.124;8.688;2023-01-13T09:16:44;2.08;;;0.30;;
31386;SDS011;18017;50.124;8.688;2023-01-13T09:19:09;0.60;;;0.10;;
31386;SDS011;18017;50.124;8.688;2023-01-13T09:21:35;3.92;;;0.20;;
31386;SDS011;18017;50.124;8.688;2023-01-13T09:24:00;1.30;;;0.20;;
31386;SDS011;18017;50.124;8.688;2023-01-13T09:26:26;5.40;;;0.50;;
31386;SDS011;18017;50.124;8.688;2023-01-13T09:28:51;1.05;;;0.10;;
31386;SDS011;18017;50.124;8.688;2023-01-13T09:31:17;3.75;;;0.20;;
31386;SDS011;18017;50.124;8.688;2023-01-13T09:33:42;4.18;;;0.35;;
31386;SDS011;18017;50.124;8.688;2023-01-13T09:36:46;2.40;;;0.28;;
31386;SDS011;18017;50.124;8.688;2023-01-13T09:39:12;1.25;;;0.10;;
31386;SDS011;18017;50.124;8.688;2023-01-13T09:41:42;3.13;;;0.20;;
31386;SDS011;18017;50.124;8.688;2023-01-13T09:47:24;2.78;;;0.20;;
31386;SDS011;18017;50.124;8.688;2023-01-13T09:49:58;3.58;;;0.28;;
31386;SDS011;18017;50.124;8.688;2023-01-13T09:52:43;3.30;;;0.20;;
31386;SDS011;18017;50.124;8.688;2023-01-13T09:55:10;2.63;;;0.20;;
31386;SDS011;18017;50.124;8.688;2023-01-13T09:57:39;2.30;;;0.40;;
31386;SDS011;18017;50.124;8.688;2023-01-13T10:05:43;2.92;;;0.28;;
31386;SDS011;18017;50.124;8.688;2023-01-13T10:08:22;1.52;;;0.20;;
31386;SDS011;18017;50.124;8.688;2023-01-13T10:11:21;4.40;;;0.30;;
31386;SDS011;18017;50.124;8.688;2023-01-13T10:14:11;3.05;;;0.43;;
31386;SDS011;18017;50.124;8.688;2023-01-13T10:21:50;3.65;;;0.40;;
31386;SDS011;18017;50.124;8.688;2023-01-13T10:27:03;3.10;;;0.50;;
31386;SDS011;18017;50.124;8.688;2023-01-13T10:29:42;2.55;;;0.25;;
31386;SDS011;18017;50.124;8.688;2023-01-13T10:32:08;2.42;;;0.25;;
31386;SDS011;18017;50.124;8.688;2023-01-13T10:34:43;2.17;;;0.22;;
31386;SDS011;18017;50.124;8.688;2023-01-13T10:37:18;3.85;;;0.60;;
31386;SDS011;18017;50.124;8.688;2023-01-13T10:39:50;5.32;;;0.60;;
31386;SDS011;18017;50.124;8.688;2023-01-13T10:42:19;7.50;;;0.82;;
31386;SDS011;18017;50.124;8.688;2023-01-13T10:44:47;3.75;;;0.32;;
31386;SDS011;18017;50.124;8.688;2023-01-13T10:47:30;4.90;;;0.50;;
31386;SDS011;18017;50.124;8.688;2023-01-13T10:50:02;2.17;;;0.25;;
31386;SDS011;18017;50.124;8.688;2023-01-13T10:55:40;3.97;;;0.68;;
31386;SDS011;18017;50.124;8.688;2023-01-13T11:00:38;3.45;;;0.40;;
31386;SDS011;18017;50.124;8.688;2023-01-13T11:05:39;3.92;;;0.70;;
31386;SDS011;18017;50.124;8.688;2023-01-13T11:08:18;2.55;;;0.25;;
31386;SDS011;18017;50.124;8.688;2023-01-13T11:10:50;5.07;;;0.43;;
31386;SDS011;18017;50.124;8.688;2023-01-13T11:13:20;2.95;;;0.47;;
31386;SDS011;18017;50.124;8.688;2023-01-13T11:15:55;2.33;;;0.30;;
31386;SDS011;18017;50.124;8.688;2023-01-13T11:24:40;2.22;;;0.40;;
31386;SDS011;18017;50.124;8.688;2023-01-13T11:30:02;5.38;;;0.70;;
31386;SDS011;18017;50.124;8.688;2023-01-13T11:32:34;3.30;;;0.30;;
31386;SDS011;18017;50.124;8.688;2023-01-13T11:35:08;2.63;;;0.22;;
31386;SDS011;18017;50.124;8.688;2023-01-13T11:37:42;4.57;;;0.40;;
31386;SDS011;18017;50.124;8.688;2023-01-13T11:40:31;2.83;;;0.30;;
31386;SDS011;18017;50.124;8.688;2023-01-13T11:45:43;6.57;;;0.40;;
31386;SDS011;18017;50.124;8.688;2023-01-13T11:48:16;2.20;;;0.40;;
31386;SDS011;18017;50.124;8.688;2023-01-13T11:56:21;4.50;;;0.40;;
31386;SDS011;18017;50.124;8.688;2023-01-13T12:04:58;7.72;;;0.70;;
31386;SDS011;18017;50.124;8.688;2023-01-13T12:13:16;5.07;;;0.68;;
31386;SDS011;18017;50.124;8.688;2023-01-13T12:27:02;5.05;;;0.68;;
31386;SDS011;18017;50.124;8.688;2023-01-13T12:29:57;6.20;;;0.77;;
31386;SDS011;18017;50.124;8.688;2023-01-13T12:32:29;2.78;;;0.30;;
31386;SDS011;18017;50.124;8.688;2023-01-13T12:35:19;4.38;;;0.30;;
31386;SDS011;18017;50.124;8.688;2023-01-13T12:37:49;5.65;;;0.75;;
31386;SDS011;18017;50.124;8.688;2023-01-13T12:43:18;6.80;;;0.80;;
31386;SDS011;18017;50.124;8.688;2023-01-13T12:46:48;5.15;;;0.52;;
31386;SDS011;18017;50.124;8.688;2023-01-13T12:51:22;4.40;;;0.73;;
31386;SDS011;18017;50.124;8.688;2023-01-13T12:53:49;4.82;;;0.63;;
31386;SDS011;18017;50.124;8.688;2023-01-13T12:56:21;4.65;;;0.60;;
31386;SDS011;18017;50.124;8.688;2023-01-13T13:01:41;2.70;;;0.47;;
31386;SDS011;18017;50.124;8.688;2023-01-13T13:04:16;2.78;;;0.38;;
31386;SDS011;18017;50.124;8.688;2023-01-13T13:06:48;3.28;;;0.50;;
31386;SDS011;18017;50.124;8.688;2023-01-13T13:15:21;7.50;;;0.73;;
31386;SDS011;18017;50.124;8.688;2023-01-13T13:40:29;3.60;;;0.40;;
31386;SDS011;18017;50.124;8.688;2023-01-13T13:43:21;6.63;;;0.50;;
31386;SDS011;18017;50.124;8.688;2023-01-13T13:46:22;5.35;;;0.50;;
31386;SDS011;18017;50.124;8.688;2023-01-13T13:49:07;3.30;;;0.30;;
31386;SDS011;18017;50.124;8.688;2023-01-13T13:51:35;2.25;;;0.20;;
31386;SDS011;18017;50.124;8.688;2023-01-13T13:54:07;2.53;;;0.32;;
31386;SDS011;18017;50.124;8.688;2023-01-13T13:56:37;2.30;;;0.30;;
31386;SDS011;18017;50.124;8.688;2023-01-13T13:59:11;4.10;;;0.40;;
31386;SDS011;18017;50.124;8.688;2023-01-13T14:01:39;4.53;;;0.40;;
31386;SDS011;18017;50.124;8.688;2023-01-13T14:04:19;2.13;;;0.30;;
31386;SDS011;18017;50.124;8.688;2023-01-13T14:06:50;1.70;;;0.20;;
31386;SDS011;18017;50.124;8.688;2023-01-13T14:09:24;2.35;;;0.30;;
31386;SDS011;18017;50.124;8.688;2023-01-13T14:11:57;5.63;;;0.68;;
31386;SDS011;18017;50.124;8.688;2023-01-13T14:14:27;6.78;;;0.65;;
31386;SDS011;18017;50.124;8.688;2023-01-13T14:16:53;3.63;;;0.50;;
31386;SDS011;18017;50.124;8.688;2023-01-13T14:21:57;8.30;;;0.45;;
31386;SDS011;18017;50.124;8.688;2023-01-13T14:24:24;4.97;;;0.60;;
31386;SDS011;18017;50.124;8.688;2023-01-13T14:26:49;5.65;;;0.70;;
31386;SDS011;18017;50.124;8.688;2023-01-13T14:29:18;3.70;;;0.43;;
31386;SDS011;18017;50.124;8.688;2023-01-13T14:31:46;6.65;;;0.50;;
31386;SDS011;18017;50.124;8.688;2023-01-13T14:34:17;6.15;;;0.98;;
31386;SDS011;18017;50.124;8.688;2023-01-13T14:36:44;6.35;;;0.65;;
31386;SDS011;18017;50.124;8.688;2023-01-13T14:44:15;5.70;;;0.50;;
31386;SDS011;18017;50.124;8.688;2023-01-13T14:46:54;3.17;;;0.50;;
31386;SDS011;18017;50.124;8.688;2023-01-13T14:54:42;4.90;;;0.40;;
31386;SDS011;18017;50.124;8.688;2023-01-13T14:57:15;4.25;;;0.38;;
31386;SDS011;18017;50.124;8.688;2023-01-13T15:10:16;6.40;;;0.90;;
31386;SDS011;18017;50.124;8.688;2023-01-13T15:12:43;7.80;;;0.95;;
31386;SDS011;18017;50.124;8.688;2023-01-13T15:17:57;2.70;;;0.40;;
31386;SDS011;18017;50.124;8.688;2023-01-13T15:20:26;4.85;;;0.30;;
31386;SDS011;18017;50.124;8.688;2023-01-13T15:22:53;6.20;;;0.45;;
31386;SDS011;18017;50.124;8.688;2023-01-13T15:25:20;6.63;;;0.52;;
31386;SDS011;18017;50.124;8.688;2023-01-13T15:27:46;4.50;;;0.47;;
31386;SDS011;18017;50.124;8.688;2023-01-13T15:30:25;3.50;;;0.50;;
31386;SDS011;18017;50.124;8.688;2023-01-13T15:32:52;7.20;;;0.40;;
31386;SDS011;18017;50.124;8.688;2023-01-13T15:35:19;5.03;;;0.40;;
31386;SDS011;18017;50.124;8.688;2023-01-13T15:37:46;6.20;;;0.98;;
31386;SDS011;18017;50.124;8.688;2023-01-13T15:40:14;6.85;;;0.70;;
31386;SDS011;18017;50.124;8.688;2023-01-13T15:42:40;8.32;;;0.60;;
31386;SDS011;18017;50.124;8.688;2023-01-13T15:45:24;6.43;;;0.60;;
31386;SDS011;18017;50.124;8.688;2023-01-13T15:48:09;4.22;;;0.73;;
31386;SDS011;18017;50.124;8.688;2023-01-13T15:50:35;6.65;;;0.50;;
31386;SDS011;18017;50.124;8.688;2023-01-13T15:53:01;7.75;;;0.60;;
31386;SDS011;18017;50.124;8.688;2023-01-13T15:55:27;5.90;;;0.63;;
31386;SDS011;18017;50.124;8.688;2023-01-13T15:57:53;7.47;;;0.82;;
31386;SDS011;18017;50.124;8.688;2023-01-13T16:00:19;4.32;;;0.57;;
31386;SDS011;18017;50.124;8.688;2023-01-13T16:02:46;4.53;;;0.40;;
31386;SDS011;18017;50.124;8.688;2023-01-13T16:05:14;2.72;;;0.50;;
31386;SDS011;18017;50.124;8.688;2023-01-13T16:07:40;4.85;;;0.40;;
31386;SDS011;18017;50.124;8.688;2023-01-13T16:10:10;4.43;;;0.77;;
31386;SDS011;18017;50.124;8.688;2023-01-13T16:12:50;6.40;;;0.68;;
31386;SDS011;18017;50.124;8.688;2023-01-13T16:15:16;6.72;;;0.82;;
31386;SDS011;18017;50.124;8.688;2023-01-13T16:17:43;6.53;;;0.50;;
31386;SDS011;18017;50.124;8.688;2023-01-13T16:20:14;7.38;;;0.55;;
31386;SDS011;18017;50.124;8.688;2023-01-13T16:22:41;6.22;;;0.60;;
31386;SDS011;18017;50.124;8.688;2023-01-13T16:25:17;4.90;;;0.75;;
31386;SDS011;18017;50.124;8.688;2023-01-13T16:27:45;7.55;;;0.50;;
31386;SDS011;18017;50.124;8.688;2023-01-13T16:30:22;4.47;;;0.63;;
31386;SDS011;18017;50.124;8.688;2023-01-13T16:32:53;8.48;;;0.50;;
31386;SDS011;18017;50.124;8.688;2023-01-13T16:35:19;10.18;;;0.90;;
31386;SDS011;18017;50.124;8.688;2023-01-13T16:37:45;5.82;;;0.75;;
31386;SDS011;18017;50.124;8.688;2023-01-13T16:40:21;6.20;;;0.70;;
31386;SDS011;18017;50.124;8.688;2023-01-13T16:42:57;6.63;;;0.50;;
31386;SDS011;18017;50.124;8.688;2023-01-13T16:45:26;7.30;;;0.93;;
31386;SDS011;18017;50.124;8.688;2023-01-13T16:47:52;2.90;;;0.47;;
31386;SDS011;18017;50.124;8.688;2023-01-13T16:50:33;6.88;;;0.60;;
31386;SDS011;18017;50.124;8.688;2023-01-13T16:53:04;6.00;;;0.55;;
31386;SDS011;18017;50.124;8.688;2023-01-13T16:55:30;5.57;;;0.30;;
31386;SDS011;18017;50.124;8.688;2023-01-13T16:57:56;3.53;;;0.57;;
31386;SDS011;18017;50.124;8.688;2023-01-13T17:00:22;7.93;;;0.70;;
31386;SDS011;18017;50.124;8.688;2023-01-13T17:02:48;4.60;;;0.50;;
31386;SDS011;18017;50.124;8.688;2023-01-13T17:05:14;8.27;;;0.55;;
31386;SDS011;18017;50.124;8.688;2023-01-13T17:07:41;6.20;;;0.55;;
31386;SDS011;18017;50.124;8.688;2023-01-13T17:10:15;7.68;;;0.50;;
31386;SDS011;18017;50.124;8.688;2023-01-13T17:12:46;7.95;;;0.50;;
31386;SDS011;18017;50.124;8.688;2023-01-13T17:15:12;6.15;;;0.90;;
31386;SDS011;18017;50.124;8.688;2023-01-13T17:17:40;10.73;;;0.63;;
31386;SDS011;18017;50.124;8.688;2023-01-13T17:20:09;5.22;;;0.55;;
31386;SDS011;18017;50.124;8.688;2023-01-13T17:22:36;5.38;;;0.70;;
31386;SDS011;18017;50.124;8.688;2023-01-13T17:25:02;9.00;;;0.90;;
31386;SDS011;18017;50.124;8.688;2023-01-13T17:27:28;9.50;;;0.70;;
31386;SDS011;18017;50.124;8.688;2023-01-13T17:29:54;4.65;;;0.50;;
31386;SDS011;18017;50.124;8.688;2023-01-13T17:32:20;4.60;;;0.55;;
31386;SDS011;18017;50.124;8.688;2023-01-13T17:34:46;8.38;;;0.90;;
31386;SDS011;18017;50.124;8.688;2023-01-13T17:37:12;11.38;;;0.60;;
31386;SDS011;18017;50.124;8.688;2023-01-13T17:39:39;5.68;;;0.93;;
31386;SDS011;18017;50.124;8.688;2023-01-13T17:42:07;4.95;;;1.02;;
31386;SDS011;18017;50.124;8.688;2023-01-13T17:44:33;6.68;;;0.63;;